createdAt,value
2022-09-14T00:01:14.336Z,78.5
2022-09-14T00:01:53.695Z,78.5
2022-09-14T00:02:53.800Z,78.5
2022-09-14T00:03:53.722Z,78.5
2022-09-14T00:04:53.766Z,78.4286
2022-09-14T00:05:53.802Z,78.4286
2022-09-14T00:06:53.848Z,78.5
2022-09-14T00:07:53.893Z,78.4286
2022-09-14T00:08:53.935Z,78.4286
2022-09-14T00:09:53.984Z,78.3571
2022-09-14T00:10:54.028Z,78.3571
2022-09-14T00:11:54.064Z,78.3571
2022-09-14T00:12:54.101Z,78.3571
2022-09-14T00:13:54.144Z,78.3571
2022-09-14T00:14:54.185Z,78.2857
2022-09-14T00:15:54.229Z,78.2857
2022-09-14T00:16:54.327Z,78.2143
2022-09-14T00:17:54.324Z,78.2143
2022-09-14T00:18:54.369Z,78.2143
2022-09-14T00:19:54.407Z,78.2143
2022-09-14T00:20:54.452Z,78.2857
2022-09-14T00:21:54.490Z,78.2857
2022-09-14T00:22:54.527Z,78.3571
2022-09-14T00:23:54.564Z,78.4286
2022-09-14T00:24:54.619Z,78.5
2022-09-14T00:25:54.666Z,78.5714
2022-09-14T00:26:54.702Z,78.5714
2022-09-14T00:27:54.750Z,78.5714
2022-09-14T00:28:54.796Z,78.5714
2022-09-14T00:29:54.831Z,78.6429
2022-09-14T00:30:54.871Z,78.6429
2022-09-14T00:31:54.960Z,78.5714
2022-09-14T00:32:54.956Z,78.5
2022-09-14T00:33:55.003Z,78.5
2022-09-14T00:34:55.047Z,78.5
2022-09-14T00:35:55.093Z,78.5
2022-09-14T00:36:55.135Z,78.5714
2022-09-14T00:37:55.184Z,78.6429
2022-09-14T00:38:55.237Z,78.7143
2022-09-14T00:39:55.295Z,78.7143
2022-09-14T00:40:55.331Z,78.7143
2022-09-14T00:41:55.363Z,78.7857
2022-09-14T00:42:55.413Z,78.7143
2022-09-14T00:43:55.456Z,78.7143
2022-09-14T00:44:55.498Z,78.6429
2022-09-14T00:45:55.576Z,78.5714
2022-09-14T00:46:55.573Z,78.5
2022-09-14T00:47:55.626Z,78.3571
2022-09-14T00:48:55.665Z,78.3571
2022-09-14T00:49:55.712Z,78.2857
2022-09-14T00:50:55.759Z,78.2857
2022-09-14T00:51:55.803Z,78.3571
2022-09-14T00:52:55.835Z,78.2857
2022-09-14T00:53:55.878Z,78.3571
2022-09-14T00:54:55.925Z,78.2857
2022-09-14T00:55:55.966Z,78.2857
2022-09-14T00:56:56.020Z,78.2143
2022-09-14T00:57:56.058Z,78.2143
2022-09-14T00:58:56.109Z,78.2143
2022-09-14T00:59:56.159Z,78.2143
2022-09-14T01:00:56.241Z,78.2857
2022-09-14T01:01:56.293Z,78.2857
2022-09-14T01:02:56.276Z,78.2857
2022-09-14T01:03:56.319Z,78.2857
2022-09-14T01:04:56.362Z,78.2143
2022-09-14T01:05:56.405Z,78.2143
2022-09-14T01:06:56.452Z,78.2143
2022-09-14T01:07:56.494Z,78.2143
2022-09-14T01:08:56.529Z,78.2143
2022-09-14T01:09:56.582Z,78.2143
2022-09-14T01:10:56.623Z,78.2143
2022-09-14T01:11:56.664Z,78.2857
2022-09-14T01:12:56.711Z,78.2857
2022-09-14T01:13:56.759Z,78.3571
2022-09-14T01:14:56.793Z,78.5
2022-09-14T01:15:56.945Z,78.5
2022-09-14T01:16:56.947Z,78.5714
2022-09-14T01:17:56.921Z,78.6429
2022-09-14T01:18:56.978Z,78.7857
2022-09-14T01:19:57.009Z,78.8571
2022-09-14T01:20:57.057Z,78.8571
2022-09-14T01:21:57.101Z,78.9286
2022-09-14T01:22:57.144Z,78.9286
2022-09-14T01:23:57.182Z,78.9286
2022-09-14T01:24:57.226Z,78.9286
2022-09-14T01:25:57.267Z,78.9286
2022-09-14T01:26:57.311Z,78.9286
2022-09-14T01:27:57.353Z,78.9286
2022-09-14T01:28:57.397Z,78.9286
2022-09-14T01:29:57.457Z,79
2022-09-14T01:30:57.489Z,79.0714
2022-09-14T01:31:57.609Z,79.1429
2022-09-14T01:32:57.579Z,79.2143
2022-09-14T01:33:57.623Z,79.2143
2022-09-14T01:34:57.686Z,79.1429
2022-09-14T01:35:57.727Z,79
2022-09-14T01:36:57.756Z,79
2022-09-14T01:37:57.801Z,78.8571
2022-09-14T01:38:57.849Z,78.7143
2022-09-14T01:39:57.952Z,78.7143
2022-09-14T01:40:57.931Z,78.7857
2022-09-14T01:41:57.977Z,78.7857
2022-09-14T01:42:58.021Z,78.9286
2022-09-14T01:43:58.056Z,79
2022-09-14T01:44:58.110Z,79.2857
2022-09-14T01:45:58.205Z,79.3571
2022-09-14T01:46:58.190Z,79.6429
2022-09-14T01:47:58.237Z,79.7857
2022-09-14T01:48:58.282Z,79.8571
2022-09-14T01:49:58.329Z,79.8571
2022-09-14T01:50:58.377Z,79.9286
2022-09-14T01:51:58.419Z,79.9286
2022-09-14T01:52:58.462Z,79.8571
2022-09-14T01:53:58.507Z,79.9286
2022-09-14T01:54:58.549Z,79.9286
2022-09-14T01:55:58.595Z,79.9286
2022-09-14T01:56:58.641Z,79.9286
2022-09-14T01:57:58.680Z,79.8571
2022-09-14T01:58:58.727Z,79.8571
2022-09-14T01:59:58.774Z,79.9286
2022-09-14T02:00:58.860Z,79.9286
2022-09-14T02:01:58.946Z,79.9286
2022-09-14T02:02:58.906Z,80.0714
2022-09-14T02:03:58.950Z,80.2143
2022-09-14T02:04:58.990Z,80.2857
2022-09-14T02:05:59.037Z,80.4286
2022-09-14T02:06:59.073Z,80.4286
2022-09-14T02:07:59.126Z,80.5
2022-09-14T02:08:59.171Z,80.5
2022-09-14T02:09:59.211Z,80.5714
2022-09-14T02:10:59.266Z,80.5714
2022-09-14T02:11:59.309Z,80.5
2022-09-14T02:12:59.355Z,80.5
2022-09-14T02:13:59.412Z,80.5
2022-09-14T02:14:59.449Z,80.5714
2022-09-14T02:15:59.553Z,80.6429
2022-09-14T02:16:59.550Z,80.6429
2022-09-14T02:17:59.580Z,80.6429
2022-09-14T02:18:59.634Z,80.6429
2022-09-14T02:19:59.669Z,80.6429
2022-09-14T02:20:59.708Z,80.5
2022-09-14T02:21:59.760Z,80.4286
2022-09-14T02:22:59.797Z,80.4286
2022-09-14T02:23:59.849Z,80.4286
2022-09-14T02:24:59.895Z,80.4286
2022-09-14T02:25:59.935Z,80.3571
2022-09-14T02:26:59.977Z,80.3571
2022-09-14T02:28:00.009Z,80.4286
2022-09-14T02:29:00.060Z,80.5
2022-09-14T02:30:00.120Z,80.5
2022-09-14T02:31:00.216Z,80.4286
2022-09-14T02:32:00.191Z,80.3571
2022-09-14T02:33:00.236Z,80.3571
2022-09-14T02:34:00.283Z,80.3571
2022-09-14T02:35:00.327Z,80.3571
2022-09-14T02:36:00.368Z,80.3571
2022-09-14T02:37:00.408Z,80.2857
2022-09-14T02:38:00.450Z,80.2857
2022-09-14T02:39:00.490Z,80.2143
2022-09-14T02:40:00.588Z,80.1429
2022-09-14T02:41:00.572Z,80.1429
2022-09-14T02:42:00.616Z,80.1429
2022-09-14T02:43:00.659Z,80.1429
2022-09-14T02:44:00.714Z,80.1429
2022-09-14T02:45:00.759Z,80.1429
2022-09-14T02:46:00.798Z,80.1429
2022-09-14T02:47:00.883Z,80.0714
2022-09-14T02:48:00.890Z,80
2022-09-14T02:49:00.936Z,79.9286
2022-09-14T02:50:00.987Z,79.9286
2022-09-14T02:51:01.031Z,80
2022-09-14T02:52:01.074Z,80
2022-09-14T02:53:01.122Z,79.9286
2022-09-14T02:54:01.169Z,79.9286
2022-09-14T02:55:01.207Z,79.8571
2022-09-14T02:56:01.254Z,79.8571
2022-09-14T02:57:01.294Z,79.8571
2022-09-14T02:58:01.339Z,79.8571
2022-09-14T02:59:01.382Z,79.9286
2022-09-14T03:00:01.428Z,79.9286
2022-09-14T03:01:01.525Z,80
2022-09-14T03:02:01.625Z,80
2022-09-14T03:03:01.578Z,80.0714
2022-09-14T03:04:01.606Z,80.1429
2022-09-14T03:05:01.649Z,80.2143
2022-09-14T03:06:01.699Z,80.2143
2022-09-14T03:07:01.757Z,80.1429
2022-09-14T03:08:01.787Z,80.2143
2022-09-14T03:09:01.851Z,80.1429
2022-09-14T03:10:01.876Z,80.2143
2022-09-14T03:11:01.921Z,80.2143
2022-09-14T03:12:01.968Z,80.2143
2022-09-14T03:13:02.019Z,80.1429
2022-09-14T03:14:02.090Z,80.2143
2022-09-14T03:15:02.109Z,80.2143
2022-09-14T03:16:02.201Z,80.1429
2022-09-14T03:17:02.206Z,80.1429
2022-09-14T03:18:02.252Z,80.2143
2022-09-14T03:19:02.331Z,80.2143
2022-09-14T03:20:02.430Z,80.3571
2022-09-14T03:21:02.387Z,80.5
2022-09-14T03:22:02.432Z,80.6429
2022-09-14T03:23:02.475Z,80.8571
2022-09-14T03:24:02.543Z,80.9286
2022-09-14T03:25:02.565Z,81.0714
2022-09-14T03:26:02.616Z,81.1429
2022-09-14T03:27:02.663Z,81.2857
2022-09-14T03:28:02.703Z,81.3571
2022-09-14T03:29:02.751Z,81.3571
2022-09-14T03:30:02.792Z,81.3571
2022-09-14T03:31:02.863Z,81.4286
2022-09-14T03:32:02.872Z,81.3571
2022-09-14T03:33:02.917Z,81.2857
2022-09-14T03:34:02.958Z,81.2857
2022-09-14T03:35:03.003Z,81.1429
2022-09-14T03:36:03.050Z,81.0714
2022-09-14T03:37:03.091Z,80.9286
2022-09-14T03:38:03.182Z,80.8571
2022-09-14T03:39:03.179Z,80.7857
2022-09-14T03:40:03.347Z,80.7143
2022-09-14T03:41:03.268Z,80.6429
2022-09-14T03:42:03.304Z,80.6429
2022-09-14T03:43:03.348Z,80.5714
2022-09-14T03:44:03.387Z,80.5714
2022-09-14T03:45:03.435Z,80.5
2022-09-14T03:46:03.540Z,80.5
2022-09-14T03:47:03.626Z,80.5
2022-09-14T03:48:03.577Z,80.4286
2022-09-14T03:49:03.630Z,80.4286
2022-09-14T03:50:03.684Z,80.3571
2022-09-14T03:51:03.717Z,80.3571
2022-09-14T03:52:03.769Z,80.2857
2022-09-14T03:53:03.816Z,80.2857
2022-09-14T03:54:03.863Z,80.2857
2022-09-14T03:55:03.912Z,80.2857
2022-09-14T03:56:03.960Z,80.2857
2022-09-14T03:57:04.013Z,80.3571
2022-09-14T03:58:04.054Z,80.3571
2022-09-14T03:59:04.096Z,80.2857
2022-09-14T04:00:04.140Z,80.2857
2022-09-14T04:01:04.191Z,80.2143
2022-09-14T04:02:04.297Z,80.2143
2022-09-14T04:03:04.346Z,80.2143
2022-09-14T04:04:04.332Z,80.2143
2022-09-14T04:05:04.373Z,80.2143
2022-09-14T04:06:04.415Z,80.2143
2022-09-14T04:07:04.480Z,80.2143
2022-09-14T04:08:04.510Z,80.2857
2022-09-14T04:09:04.552Z,80.4286
2022-09-14T04:10:04.603Z,80.5
2022-09-14T04:11:04.652Z,80.6429
2022-09-14T04:12:04.701Z,80.7857
2022-09-14T04:13:04.746Z,80.8571
2022-09-14T04:14:04.784Z,80.9286
2022-09-14T04:15:04.829Z,81
2022-09-14T04:16:04.915Z,81.0714
2022-09-14T04:17:04.914Z,81.1429
2022-09-14T04:18:04.960Z,81.2143
2022-09-14T04:19:05.026Z,81.2857
2022-09-14T04:20:05.062Z,81.2857
2022-09-14T04:21:08.267Z,81.2857
2022-09-14T04:22:05.144Z,81.2143
2022-09-14T04:23:05.185Z,81.2143
2022-09-14T04:24:16.115Z,81.2143
2022-09-14T04:25:05.271Z,81.2143
2022-09-14T04:26:05.314Z,81.2143
2022-09-14T04:27:05.360Z,81.2143
2022-09-14T04:28:19.594Z,81.1429
2022-09-14T04:29:05.457Z,81.1429
2022-09-14T04:30:05.498Z,81.0714
2022-09-14T04:31:05.552Z,81
2022-09-14T04:32:05.588Z,80.9286
2022-09-14T04:33:05.632Z,80.8571
2022-09-14T04:34:05.675Z,80.7857
2022-09-14T04:35:05.808Z,80.7143
2022-09-14T04:36:05.771Z,80.6429
2022-09-14T04:37:05.809Z,80.5714
2022-09-14T04:38:05.855Z,80.5
2022-09-14T04:39:05.897Z,80.4286
2022-09-14T04:40:06.000Z,80.4286
2022-09-14T04:41:05.991Z,80.4286
2022-09-14T04:42:06.037Z,80.3571
2022-09-14T04:43:06.081Z,80.2857
2022-09-14T04:44:06.124Z,80.2857
2022-09-14T04:45:06.164Z,80.2857
2022-09-14T04:46:06.251Z,80.2143
2022-09-14T04:47:06.252Z,80.1429
2022-09-14T04:48:06.301Z,80.1429
2022-09-14T04:49:06.343Z,80.0714
2022-09-14T04:50:06.381Z,80
2022-09-14T04:51:06.428Z,80
2022-09-14T04:52:06.473Z,79.9286
2022-09-14T04:53:06.504Z,79.9286
2022-09-14T04:54:06.543Z,79.9286
2022-09-14T04:55:06.588Z,79.8571
2022-09-14T04:56:06.623Z,79.8571
2022-09-14T04:57:06.659Z,79.8571
2022-09-14T04:58:06.704Z,79.8571
2022-09-14T04:59:06.742Z,79.7857
2022-09-14T05:00:06.783Z,79.7857
2022-09-14T05:01:06.818Z,79.7143
2022-09-14T05:02:07.097Z,79.7143
2022-09-14T05:03:06.976Z,79.6429
2022-09-14T05:04:06.943Z,79.6429
2022-09-14T05:05:06.985Z,79.6429
2022-09-14T05:06:07.027Z,79.5714
2022-09-14T05:07:07.073Z,79.5714
2022-09-14T05:08:07.112Z,79.5714
2022-09-14T05:09:07.161Z,79.6429
2022-09-14T05:10:07.203Z,79.6429
2022-09-14T05:11:07.242Z,79.6429
2022-09-14T05:12:07.276Z,79.6429
2022-09-14T05:13:07.331Z,79.6429
2022-09-14T05:14:07.373Z,79.7857
2022-09-14T05:15:07.419Z,79.8571
2022-09-14T05:16:07.525Z,79.8571
2022-09-14T05:17:07.498Z,79.9286
2022-09-14T05:18:07.542Z,80
2022-09-14T05:19:07.578Z,80
2022-09-14T05:20:07.624Z,80
2022-09-14T05:21:08.515Z,80
2022-09-14T05:22:07.707Z,80
2022-09-14T05:23:07.744Z,80
2022-09-14T05:24:07.786Z,80
2022-09-14T05:25:07.841Z,80
2022-09-14T05:26:07.875Z,80
2022-09-14T05:27:07.917Z,79.9286
2022-09-14T05:28:07.956Z,79.8571
2022-09-14T05:29:08.016Z,79.8571
2022-09-14T05:30:08.044Z,79.7857
2022-09-14T05:31:08.136Z,79.7857
2022-09-14T05:32:08.132Z,79.7143
2022-09-14T05:33:08.169Z,79.6429
2022-09-14T05:34:08.214Z,79.6429
2022-09-14T05:35:08.270Z,79.6429
2022-09-14T05:36:08.315Z,79.6429
2022-09-14T05:37:08.367Z,79.6429
2022-09-14T05:38:08.414Z,79.6429
2022-09-14T05:39:08.452Z,79.6429
2022-09-14T05:40:08.571Z,79.6429
2022-09-14T05:41:08.537Z,79.6429
2022-09-14T05:42:08.567Z,79.5
2022-09-14T05:43:08.613Z,79.4286
2022-09-14T05:44:08.660Z,79.3571
2022-09-14T05:45:08.703Z,79.4286
2022-09-14T05:46:08.820Z,79.3571
2022-09-14T05:47:08.790Z,79.3571
2022-09-14T05:48:08.829Z,79.2857
2022-09-14T05:49:08.867Z,79.2857
2022-09-14T05:50:08.909Z,79.2143
2022-09-14T05:51:08.954Z,79.1429
2022-09-14T05:52:08.993Z,79.1429
2022-09-14T05:53:09.034Z,79.0714
2022-09-14T05:54:09.076Z,79.0714
2022-09-14T05:55:09.114Z,79
2022-09-14T05:56:09.163Z,79
2022-09-14T05:57:09.209Z,78.9286
2022-09-14T05:58:09.255Z,78.8571
2022-09-14T05:59:09.295Z,78.7143
2022-09-14T06:00:09.348Z,78.7857
2022-09-14T06:01:09.386Z,78.7143
2022-09-14T06:02:09.513Z,78.6429
2022-09-14T06:03:09.470Z,78.5714
2022-09-14T06:04:09.510Z,78.5
2022-09-14T06:05:09.630Z,78.4286
2022-09-14T06:06:09.590Z,78.3571
2022-09-14T06:07:18.497Z,78.2857
2022-09-14T06:08:09.668Z,78.2143
2022-09-14T06:09:09.709Z,78.2143
2022-09-14T06:10:09.753Z,78.1429
2022-09-14T06:11:09.801Z,78
2022-09-14T06:12:09.840Z,78.0714
2022-09-14T06:13:09.879Z,78
2022-09-14T06:14:09.927Z,78
2022-09-14T06:15:09.973Z,78
2022-09-14T06:16:10.005Z,77.9286
2022-09-14T06:17:10.044Z,77.7857
2022-09-14T06:18:10.081Z,77.7143
2022-09-14T06:19:10.117Z,77.7143
2022-09-14T06:20:10.161Z,77.7143
2022-09-14T06:21:10.202Z,77.7857
2022-09-14T06:22:10.252Z,77.7857
2022-09-14T06:23:10.297Z,77.7143
2022-09-14T06:24:10.340Z,77.7857
2022-09-14T06:25:10.390Z,77.7857
2022-09-14T06:26:10.429Z,77.6429
2022-09-14T06:27:10.471Z,77.4286
2022-09-14T06:28:10.513Z,77.2143
2022-09-14T06:29:10.553Z,77.2143
2022-09-14T06:30:10.602Z,77.0714
2022-09-14T06:31:10.635Z,77
2022-09-14T06:32:10.677Z,76.8571
2022-09-14T06:33:10.719Z,76.7143
2022-09-14T06:34:10.758Z,76.6429
2022-09-14T06:35:12.495Z,76.6429
2022-09-14T06:36:10.847Z,76.4286
2022-09-14T06:37:10.886Z,76.1429
2022-09-14T06:38:10.927Z,75.9286
2022-09-14T06:39:10.967Z,75.8571
2022-09-14T06:40:11.078Z,75.7143
2022-09-14T06:41:11.050Z,75.5714
2022-09-14T06:42:11.092Z,75.3571
2022-09-14T06:43:11.135Z,75.2857
2022-09-14T06:44:11.176Z,75.1429
2022-09-14T06:45:11.241Z,75.0714
2022-09-14T06:46:11.254Z,75
2022-09-14T06:47:11.296Z,75
2022-09-14T06:48:11.347Z,74.9286
2022-09-14T06:49:11.391Z,74.8571
2022-09-14T06:50:11.433Z,74.7857
2022-09-14T06:51:11.476Z,74.7857
2022-09-14T06:52:11.511Z,74.7857
2022-09-14T06:53:11.552Z,74.7143
2022-09-14T06:54:11.594Z,74.3571
2022-09-14T06:55:11.639Z,74.0714
2022-09-14T06:56:11.678Z,73.8571
2022-09-14T06:57:11.721Z,73.5714
2022-09-14T06:58:11.756Z,73.3571
2022-09-14T06:59:11.803Z,73.2857
2022-09-14T07:00:11.841Z,73.1429
2022-09-14T07:01:11.882Z,73
2022-09-14T07:02:11.980Z,72.8571
2022-09-14T07:03:12.031Z,72.7143
2022-09-14T07:04:12.010Z,72.7857
2022-09-14T07:05:12.045Z,72.7857
2022-09-14T07:06:12.081Z,72.6429
2022-09-14T07:07:12.112Z,72.3571
2022-09-14T07:08:12.535Z,72.0714
2022-09-14T07:09:12.190Z,71.6429
2022-09-14T07:10:12.227Z,71.3571
2022-09-14T07:11:12.268Z,71.0714
2022-09-14T07:12:12.300Z,70.8571
2022-09-14T07:13:12.328Z,70.7143
2022-09-14T07:14:12.364Z,70.7143
2022-09-14T07:15:12.390Z,70.7143
2022-09-14T07:16:12.430Z,70.7143
2022-09-14T07:17:12.504Z,70.6429
2022-09-14T07:18:12.505Z,70.5714
2022-09-14T07:19:12.537Z,70.5714
2022-09-14T07:20:12.562Z,70.5
2022-09-14T07:21:12.599Z,70.4286
2022-09-14T07:22:12.637Z,70.3571
2022-09-14T07:23:12.674Z,70.1429
2022-09-14T07:24:12.714Z,70.0714
2022-09-14T07:25:12.758Z,69.9286
2022-09-14T07:26:12.783Z,69.9286
2022-09-14T07:27:12.821Z,69.7857
2022-09-14T07:28:12.858Z,69.5714
2022-09-14T07:29:12.898Z,69.2857
2022-09-14T07:30:12.934Z,69.1429
2022-09-14T07:31:13.040Z,69
2022-09-14T07:32:13.012Z,68.9286
2022-09-14T07:33:13.048Z,68.9286
2022-09-14T07:34:13.083Z,68.9286
2022-09-14T07:35:13.120Z,68.8571
2022-09-14T07:36:13.160Z,68.9286
2022-09-14T07:37:13.193Z,68.7143
2022-09-14T07:38:13.226Z,68.5714
2022-09-14T07:39:13.273Z,68.3571
2022-09-14T07:40:13.353Z,67.9286
2022-09-14T07:41:13.323Z,67.7143
2022-09-14T07:42:13.363Z,67.6429
2022-09-14T07:43:13.399Z,67.5
2022-09-14T07:44:13.444Z,67.4286
2022-09-14T07:45:13.500Z,67.3571
2022-09-14T07:46:13.552Z,67.4286
2022-09-14T07:47:13.547Z,67
2022-09-14T07:48:13.572Z,66.5
2022-09-14T07:49:13.613Z,66.3571
2022-09-14T07:50:13.641Z,66.1429
2022-09-14T07:51:13.684Z,66.0714
2022-09-14T07:52:13.718Z,66.1429
2022-09-14T07:53:13.754Z,66.0714
2022-09-14T07:54:13.783Z,66.0714
2022-09-14T07:55:13.819Z,66.0714
2022-09-14T07:56:13.855Z,66
2022-09-14T07:57:13.888Z,65.8571
2022-09-14T07:58:13.928Z,65.4286
2022-09-14T07:59:35.705Z,65.1429
2022-09-14T07:59:35.982Z,65.0714
2022-09-14T08:10:09.581Z,63.1429
2022-09-14T08:11:09.615Z,62.8571
2022-09-14T08:12:09.658Z,62.2857
2022-09-14T08:13:09.694Z,62.0714
2022-09-14T08:14:09.729Z,62.1429
2022-09-14T08:15:09.756Z,62.0714
2022-09-14T08:16:09.818Z,62.1429
2022-09-14T08:17:09.827Z,62.6429
2022-09-14T08:18:09.856Z,62.5714
2022-09-14T08:19:09.896Z,62.7143
2022-09-14T08:20:09.935Z,63
2022-09-14T08:21:09.968Z,62.8571
2022-09-14T08:22:10.003Z,62.5714
2022-09-14T08:23:10.043Z,62.0714
2022-09-14T08:24:10.080Z,62
2022-09-14T08:25:10.119Z,62.0714
2022-09-14T08:26:10.154Z,62
2022-09-14T08:27:10.188Z,61.4286
2022-09-14T08:28:10.224Z,61.0714
2022-09-14T08:29:10.260Z,61
2022-09-14T08:30:10.304Z,60.6429
2022-09-14T08:31:10.344Z,61.2857
2022-09-14T08:32:10.442Z,61.5
2022-09-14T08:33:10.401Z,60.7857
2022-09-14T08:34:10.440Z,59.8571
2022-09-14T08:35:10.476Z,59.2143
2022-09-14T08:36:10.512Z,58.7857
2022-09-14T08:37:10.556Z,58.4286
2022-09-14T08:38:10.592Z,58.2143
2022-09-14T08:39:10.630Z,58.5714
2022-09-14T08:40:10.734Z,58.5
2022-09-14T08:41:10.705Z,58.3571
2022-09-14T08:42:10.747Z,58.1429
2022-09-14T08:43:10.791Z,58.2857
2022-09-14T08:44:10.819Z,57.5
2022-09-14T08:45:10.854Z,57.4286
2022-09-14T08:46:10.941Z,57.2857
2022-09-14T08:47:10.933Z,57.2143
2022-09-14T08:48:10.967Z,57.1429
2022-09-14T08:49:11.014Z,56.6429
2022-09-14T08:50:11.050Z,55.9286
2022-09-14T08:51:11.076Z,55.7857
2022-09-14T08:52:11.114Z,54.9286
2022-09-14T08:53:11.142Z,55.5
2022-09-14T08:54:11.181Z,54.8571
2022-09-14T08:55:11.209Z,53.7857
2022-09-14T08:56:11.243Z,53.9286
2022-09-14T08:57:11.274Z,54.5714
2022-09-14T08:58:11.312Z,54.2857
2022-09-14T08:59:11.344Z,54.3571
2022-09-14T09:00:11.371Z,54.4286
2022-09-14T09:01:11.436Z,54.7857
2022-09-14T09:02:11.445Z,54.8571
2022-09-14T09:03:11.494Z,55
2022-09-14T09:04:11.608Z,55
2022-09-14T09:05:11.546Z,54.2143
2022-09-14T09:06:15.612Z,53.6429
2022-09-14T09:07:11.603Z,53.7143
2022-09-14T09:08:11.634Z,54.2143
2022-09-14T09:09:11.668Z,54.1429
2022-09-14T09:10:11.703Z,54.0714
2022-09-14T09:11:11.734Z,53.7143
2022-09-14T09:12:11.775Z,53.6429
2022-09-14T09:13:11.803Z,53.2857
2022-09-14T09:14:16.241Z,53.3571
2022-09-14T09:15:11.881Z,53.6429
2022-09-14T09:16:11.982Z,53.7857
2022-09-14T09:17:11.961Z,54
2022-09-14T09:18:11.992Z,53.7143
2022-09-14T09:19:12.026Z,53.9286
2022-09-14T09:20:12.068Z,53.1429
2022-09-14T09:21:12.100Z,53.2143
2022-09-14T09:22:12.129Z,53.3571
2022-09-14T09:23:12.166Z,53.3571
2022-09-14T09:24:12.204Z,52.8571
2022-09-14T09:25:12.228Z,52.8571
2022-09-14T09:26:12.259Z,52.7143
2022-09-14T09:27:12.295Z,52.6429
2022-09-14T09:28:12.332Z,52.7857
2022-09-14T09:29:12.361Z,54.0714
2022-09-14T09:30:12.398Z,54.5714
2022-09-14T09:31:14.765Z,54
2022-09-14T09:32:12.471Z,53.6429
2022-09-14T09:33:12.495Z,53.2857
2022-09-14T09:34:12.534Z,53.3571
2022-09-14T09:35:12.567Z,53
2022-09-14T09:36:12.607Z,52.7857
2022-09-14T09:37:12.646Z,52
2022-09-14T09:38:12.681Z,51.8571
2022-09-14T09:39:12.721Z,52.7143
2022-09-14T09:40:12.829Z,52.2143
2022-09-14T09:41:12.798Z,52.3571
2022-09-14T09:42:12.830Z,51.8571
2022-09-14T09:43:12.881Z,51.9286
2022-09-14T09:44:12.904Z,52.2143
2022-09-14T09:45:12.939Z,52.5714
2022-09-14T09:46:13.031Z,52.5714
2022-09-14T09:47:13.016Z,52
2022-09-14T09:48:13.051Z,51.7143
2022-09-14T09:49:13.086Z,51.3571
2022-09-14T09:50:13.122Z,52.2143
2022-09-14T09:51:13.158Z,52.1429
2022-09-14T09:52:13.190Z,52.5
2022-09-14T09:53:13.224Z,52.9286
2022-09-14T09:54:13.257Z,52.5
2022-09-14T09:55:13.280Z,52.4286
2022-09-14T09:56:13.308Z,52.2857
2022-09-14T09:57:13.339Z,51.8571
2022-09-14T09:58:13.377Z,51.7857
2022-09-14T09:59:13.444Z,51.5714
2022-09-14T10:00:13.451Z,51.6429
2022-09-14T10:01:13.533Z,52.0714
2022-09-14T10:02:13.563Z,52.6429
2022-09-14T10:03:13.557Z,52.4286
2022-09-14T10:04:13.609Z,52.7143
2022-09-14T10:05:13.623Z,52.7857
2022-09-14T10:06:13.660Z,52.7143
2022-09-14T10:07:13.702Z,52.5
2022-09-14T10:08:13.743Z,52.2857
2022-09-14T10:09:13.840Z,51.5714
2022-09-14T10:10:13.948Z,51.4286
2022-09-14T10:11:13.857Z,52.4286
2022-09-14T10:12:13.902Z,52.3571
2022-09-14T10:13:13.938Z,52.2857
2022-09-14T10:14:13.996Z,52.4286
2022-09-14T10:15:14.017Z,51.8571
2022-09-14T10:16:14.120Z,51.5
2022-09-14T10:17:14.098Z,51.9286
2022-09-14T10:18:14.133Z,51.5
2022-09-14T10:19:14.165Z,50.2143
2022-09-14T10:20:14.211Z,49.5714
2022-09-14T10:21:14.242Z,49.9286
2022-09-14T10:22:17.198Z,50.1429
2022-09-14T10:23:14.314Z,50.6429
2022-09-14T10:24:14.350Z,50.5
2022-09-14T10:25:14.387Z,50.0714
2022-09-14T10:26:14.424Z,49.6429
2022-09-14T10:27:14.460Z,49.9286
2022-09-14T10:28:14.499Z,48.7857
2022-09-14T10:29:14.536Z,48.4286
2022-09-14T10:30:14.574Z,49
2022-09-14T10:31:14.684Z,48.9286
2022-09-14T10:32:14.647Z,48.6429
2022-09-14T10:33:14.679Z,49
2022-09-14T10:34:17.310Z,49
2022-09-14T10:35:14.753Z,48.5
2022-09-14T10:36:14.796Z,48.2857
2022-09-14T10:37:14.833Z,48.1429
2022-09-14T10:38:14.861Z,48.6429
2022-09-14T10:39:14.899Z,47.3571
2022-09-14T10:40:14.989Z,46.4286
2022-09-14T10:41:14.968Z,46.4286
2022-09-14T10:42:15.010Z,46.9286
2022-09-14T10:43:15.039Z,47.5714
2022-09-14T10:44:15.079Z,47.1429
2022-09-14T10:45:15.136Z,47.0714
2022-09-14T10:46:15.183Z,48.1429
2022-09-14T10:47:15.186Z,48.2143
2022-09-14T10:48:15.222Z,47
2022-09-14T10:49:15.255Z,47.7857
2022-09-14T10:50:15.302Z,47.4286
2022-09-14T10:51:15.349Z,47.2143
2022-09-14T10:52:15.373Z,46.6429
2022-09-14T10:53:15.414Z,47.7143
2022-09-14T10:54:15.457Z,47.3571
2022-09-14T10:55:15.480Z,46.7857
2022-09-14T10:56:15.516Z,46.6429
2022-09-14T10:57:15.555Z,46
2022-09-14T10:58:20.108Z,45.0714
2022-09-14T10:59:15.657Z,44.9286
2022-09-14T11:00:15.672Z,45.7143
2022-09-14T11:01:15.777Z,46.0714
2022-09-14T11:02:15.866Z,45.7857
2022-09-14T11:03:15.775Z,45.5714
2022-09-14T11:04:15.828Z,45.4286
2022-09-14T11:05:15.840Z,45.5
2022-09-14T11:11:01.574Z,46.3571
2022-09-14T11:12:01.617Z,46.9286
2022-09-14T11:13:01.650Z,46.7143
2022-09-14T11:14:01.688Z,46.3571
2022-09-14T11:15:01.734Z,46.2143
2022-09-14T11:16:01.863Z,46.4286
2022-09-14T11:17:01.812Z,47.5
2022-09-14T11:18:01.848Z,47
2022-09-14T11:19:01.870Z,46.7143
2022-09-14T11:20:01.911Z,46.1429
2022-09-14T11:21:01.950Z,46.1429
2022-09-14T11:22:01.990Z,46.7857
2022-09-14T11:23:02.023Z,47.5
2022-09-14T11:24:02.061Z,49
2022-09-14T11:25:02.099Z,47.2143
2022-09-14T11:26:02.127Z,47.2857
2022-09-14T11:27:02.163Z,48.8571
2022-09-14T11:28:02.198Z,48.2143
2022-09-14T11:29:02.239Z,48.0714
2022-09-14T11:30:02.269Z,47.5714
2022-09-14T11:31:02.326Z,47.2143
2022-09-14T11:32:19.850Z,47.5
2022-09-14T11:33:02.368Z,48.2143
2022-09-14T11:34:02.400Z,48.3571
2022-09-14T11:35:02.451Z,49.0714
2022-09-14T11:36:02.476Z,46.9286
2022-09-14T11:37:02.514Z,47.7857
2022-09-14T11:38:02.548Z,48.4286
2022-09-14T11:39:06.711Z,47.7857
2022-09-14T11:40:02.649Z,48
2022-09-14T11:41:02.674Z,48
2022-09-14T11:42:02.696Z,48.4286
2022-09-14T11:43:02.743Z,48.1429
2022-09-14T11:44:02.772Z,47.4286
2022-09-14T11:45:02.803Z,47.7857
2022-09-14T11:46:02.894Z,47.1429
2022-09-14T11:47:02.877Z,47.9286
2022-09-14T11:48:02.909Z,47.4286
2022-09-14T11:49:03.011Z,47.3571
2022-09-14T11:50:02.968Z,46.5714
2022-09-14T11:51:02.994Z,46.9286
2022-09-14T11:52:03.023Z,47.7143
2022-09-14T11:53:03.055Z,46.5714
2022-09-14T11:54:03.086Z,46.5
2022-09-14T11:55:03.120Z,47
2022-09-14T11:56:03.152Z,47.5
2022-09-14T11:57:03.186Z,47
2022-09-14T11:58:03.221Z,47.2857
2022-09-14T11:59:03.260Z,47.7143
2022-09-14T12:00:03.295Z,47.8571
2022-09-14T12:01:03.326Z,48.3571
2022-09-14T12:02:03.360Z,46.7143
2022-09-14T12:03:03.434Z,47.5
2022-09-14T12:04:03.485Z,47.7857
2022-09-14T12:05:03.450Z,47.9286
2022-09-14T12:06:03.471Z,47.7857
2022-09-14T12:07:03.516Z,48.3571
2022-09-14T12:08:03.541Z,49.0714
2022-09-14T12:09:03.575Z,49.6429
2022-09-14T12:10:03.615Z,48.7857
2022-09-14T12:11:03.651Z,47.1429
2022-09-14T12:12:03.682Z,47.0714
2022-09-14T12:13:03.719Z,47.1429
2022-09-14T12:14:03.751Z,47.3571
2022-09-14T12:15:03.780Z,47.4286
2022-09-14T12:16:03.905Z,47.9286
2022-09-14T12:17:17.332Z,47.7857
2022-09-14T12:18:03.888Z,47.7143
2022-09-14T12:19:03.923Z,47.6429
2022-09-14T12:20:03.952Z,47
2022-09-14T12:21:03.991Z,46.6429
2022-09-14T12:22:04.019Z,46.6429
2022-09-14T12:23:04.051Z,47.0714
2022-09-14T12:24:04.090Z,47.1429
2022-09-14T12:25:04.188Z,47.3571
2022-09-14T12:26:04.156Z,46.7857
2022-09-14T12:27:04.192Z,47.2143
2022-09-14T12:28:04.219Z,47.1429
2022-09-14T12:29:04.256Z,47.6429
2022-09-14T12:30:04.292Z,47.8571
2022-09-14T12:31:04.411Z,47.2143
2022-09-14T12:32:04.357Z,47.1429
2022-09-14T12:33:04.400Z,47.3571
2022-09-14T12:34:04.432Z,48.1429